createdAt,value
2023-10-11T00:00:31.434Z,1003.12
2023-10-11T00:01:31.465Z,1003.15
2023-10-11T00:02:31.396Z,1003.14
2023-10-11T00:03:31.482Z,1003.14
2023-10-11T00:04:31.434Z,1003.13
2023-10-11T00:05:31.359Z,1003.13
2023-10-11T00:06:31.350Z,1003.11
2023-10-11T00:07:31.335Z,1003.13
2023-10-11T00:08:31.429Z,1003.11
2023-10-11T00:09:31.315Z,1003.10
2023-10-11T00:10:31.283Z,1003.09
2023-10-11T00:11:31.276Z,1003.11
2023-10-11T00:12:31.276Z,1003.12
2023-10-11T00:13:31.261Z,1003.12
2023-10-11T00:14:31.252Z,1003.11
2023-10-11T00:15:31.236Z,1003.10
2023-10-11T00:16:31.204Z,1003.14
2023-10-11T00:17:31.234Z,1003.13
2023-10-11T00:18:31.298Z,1003.11
2023-10-11T00:19:31.205Z,1003.13
2023-10-11T00:20:31.171Z,1003.13
2023-10-11T00:21:31.164Z,1003.15
2023-10-11T00:22:31.137Z,1003.13
2023-10-11T00:23:31.134Z,1003.10
2023-10-11T00:24:31.111Z,1003.14
2023-10-11T00:25:31.102Z,1003.11
2023-10-11T00:26:31.070Z,1003.05
2023-10-11T00:27:31.082Z,1003.08
2023-10-11T00:28:31.064Z,1003.06
2023-10-11T00:29:31.047Z,1003.06
2023-10-11T00:30:31.174Z,1003.07
2023-10-11T00:31:31.027Z,1003.03
2023-10-11T00:32:31.033Z,1003.02
2023-10-11T00:33:38.828Z,1003.02
2023-10-11T00:34:31.965Z,1003.01
2023-10-11T00:35:30.947Z,1003.03
2023-10-11T00:36:30.945Z,1002.97
2023-10-11T00:37:30.940Z,1002.98
2023-10-11T00:38:30.926Z,1002.94
2023-10-11T00:39:30.890Z,1002.93
2023-10-11T00:40:30.892Z,1002.96
2023-10-11T00:41:30.868Z,1002.95
2023-10-11T00:42:30.876Z,1002.94
2023-10-11T00:43:30.857Z,1002.93
2023-10-11T00:44:30.850Z,1002.94
2023-10-11T00:45:30.811Z,1002.96
2023-10-11T00:46:30.826Z,1002.94
2023-10-11T00:47:30.842Z,1002.92
2023-10-11T00:48:30.899Z,1002.91
2023-10-11T00:49:30.761Z,1002.95
2023-10-11T00:50:30.748Z,1002.95
2023-10-11T00:51:30.841Z,1002.93
2023-10-11T00:52:30.739Z,1002.97
2023-10-11T00:53:30.722Z,1002.97
2023-10-11T00:54:30.692Z,1003.01
2023-10-11T00:55:30.687Z,1002.98
2023-10-11T00:56:30.672Z,1003.00
2023-10-11T00:57:30.665Z,1002.99
2023-10-11T00:58:30.637Z,1002.96
2023-10-11T00:59:30.628Z,1002.96
2023-10-11T01:00:30.613Z,1003.00
2023-10-11T01:01:30.638Z,1003.00
2023-10-11T01:02:30.872Z,1003.01
2023-10-11T01:03:30.663Z,1003.04
2023-10-11T01:04:30.697Z,1003.05
2023-10-11T01:05:30.541Z,1003.03
2023-10-11T01:06:30.555Z,1003.02
2023-10-11T01:07:30.513Z,1003.05
2023-10-11T01:08:30.503Z,1003.03
2023-10-11T01:09:30.502Z,1003.01
2023-10-11T01:10:30.515Z,1002.99
2023-10-11T01:11:30.478Z,1002.98
2023-10-11T01:12:30.449Z,1002.96
2023-10-11T01:13:30.439Z,1002.96
2023-10-11T01:14:30.424Z,1002.97
2023-10-11T01:15:30.404Z,1002.93
2023-10-11T01:16:30.450Z,1002.90
2023-10-11T01:17:30.397Z,1002.90
2023-10-11T01:18:30.419Z,1002.89
2023-10-11T01:19:30.346Z,1002.85
2023-10-11T01:20:30.346Z,1002.86
2023-10-11T01:21:30.341Z,1002.84
2023-10-11T01:22:30.314Z,1002.78
2023-10-11T01:23:30.297Z,1002.78
2023-10-11T01:24:30.306Z,1002.78
2023-10-11T01:25:30.272Z,1002.81
2023-10-11T01:26:30.280Z,1002.73
2023-10-11T01:27:30.240Z,1002.74
2023-10-11T01:28:30.230Z,1002.70
2023-10-11T01:29:30.219Z,1002.72
2023-10-11T01:30:30.202Z,1002.74
2023-10-11T01:31:30.205Z,1002.71
2023-10-11T01:32:30.225Z,1002.74
2023-10-11T01:33:30.254Z,1002.69
2023-10-11T01:34:30.176Z,1002.71
2023-10-11T01:35:30.133Z,1002.73
2023-10-11T01:36:30.148Z,1002.71
2023-10-11T01:37:30.112Z,1002.68
2023-10-11T01:38:30.141Z,1002.70
2023-10-11T01:39:30.110Z,1002.71
2023-10-11T01:40:30.069Z,1002.72
2023-10-11T01:41:30.090Z,1002.69
2023-10-11T01:42:30.045Z,1002.67
2023-10-11T01:43:30.054Z,1002.68
2023-10-11T01:44:30.020Z,1002.68
2023-10-11T01:45:30.000Z,1002.63
2023-10-11T01:46:30.051Z,1002.64
2023-10-11T01:47:29.999Z,1002.66
2023-10-11T01:48:30.062Z,1002.64
2023-10-11T01:49:29.947Z,1002.66
2023-10-11T01:50:29.997Z,1002.64
2023-10-11T01:51:29.930Z,1002.67
2023-10-11T01:52:29.955Z,1002.62
2023-10-11T01:53:29.892Z,1002.66
2023-10-11T01:54:29.883Z,1002.66
2023-10-11T01:55:29.864Z,1002.64
2023-10-11T01:56:29.874Z,1002.63
2023-10-11T01:57:29.836Z,1002.59
2023-10-11T01:58:29.828Z,1002.57
2023-10-11T01:59:29.816Z,1002.57
2023-10-11T02:00:29.799Z,1002.60
2023-10-11T02:01:29.871Z,1002.59
2023-10-11T02:02:29.817Z,1002.59
2023-10-11T02:03:29.794Z,1002.60
2023-10-11T02:04:29.755Z,1002.59
2023-10-11T02:05:29.772Z,1002.59
2023-10-11T02:06:29.733Z,1002.56
2023-10-11T02:07:29.708Z,1002.57
2023-10-11T02:08:29.690Z,1002.55
2023-10-11T02:09:29.722Z,1002.58
2023-10-11T02:10:29.679Z,1002.59
2023-10-11T02:11:29.652Z,1002.51
2023-10-11T02:12:29.642Z,1002.52
2023-10-11T02:13:29.624Z,1002.51
2023-10-11T02:14:29.675Z,1002.46
2023-10-11T02:15:29.626Z,1002.47
2023-10-11T02:16:29.862Z,1002.47
2023-10-11T02:17:29.578Z,1002.48
2023-10-11T02:18:29.636Z,1002.47
2023-10-11T02:19:29.544Z,1002.49
2023-10-11T02:20:29.563Z,1002.48
2023-10-11T02:21:29.520Z,1002.44
2023-10-11T02:22:29.502Z,1002.46
2023-10-11T02:23:29.493Z,1002.47
2023-10-11T02:24:29.489Z,1002.51
2023-10-11T02:25:29.494Z,1002.51
2023-10-11T02:26:29.450Z,1002.52
2023-10-11T02:27:29.436Z,1002.50
2023-10-11T02:28:29.422Z,1002.51
2023-10-11T02:29:29.464Z,1002.50
2023-10-11T02:30:29.391Z,1002.51
2023-10-11T02:31:29.419Z,1002.51
2023-10-11T02:32:29.375Z,1002.52
2023-10-11T02:33:29.486Z,1002.52
2023-10-11T02:34:29.401Z,1002.56
2023-10-11T02:35:29.334Z,1002.53
2023-10-11T02:36:29.308Z,1002.50
2023-10-11T02:37:29.302Z,1002.50
2023-10-11T02:38:29.285Z,1002.54
2023-10-11T02:39:29.292Z,1002.53
2023-10-11T02:40:29.256Z,1002.53
2023-10-11T02:41:29.251Z,1002.53
2023-10-11T02:42:29.230Z,1002.52
2023-10-11T02:43:29.233Z,1002.52
2023-10-11T02:44:29.229Z,1002.54
2023-10-11T02:45:29.202Z,1002.54
2023-10-11T02:46:29.186Z,1002.50
2023-10-11T02:47:29.173Z,1002.52
2023-10-11T02:48:29.186Z,1002.50
2023-10-11T02:49:29.149Z,1002.51
2023-10-11T02:50:29.139Z,1002.50
2023-10-11T02:51:29.111Z,1002.50
2023-10-11T02:52:29.099Z,1002.48
2023-10-11T02:53:29.106Z,1002.50
2023-10-11T02:54:29.087Z,1002.50
2023-10-11T02:55:29.052Z,1002.47
2023-10-11T02:56:29.046Z,1002.45
2023-10-11T02:57:29.114Z,1002.39
2023-10-11T02:58:29.031Z,1002.41
2023-10-11T02:59:29.015Z,1002.39
2023-10-11T03:00:28.984Z,1002.34
2023-10-11T03:01:29.005Z,1002.35
2023-10-11T03:02:29.044Z,1002.34
2023-10-11T03:03:29.110Z,1002.34
2023-10-11T03:04:28.940Z,1002.35
2023-10-11T03:05:28.915Z,1002.30
2023-10-11T03:06:28.909Z,1002.30
2023-10-11T03:07:28.888Z,1002.29
2023-10-11T03:08:28.901Z,1002.25
2023-10-11T03:09:31.074Z,1002.29
2023-10-11T03:10:28.859Z,1002.30
2023-10-11T03:11:28.838Z,1002.27
2023-10-11T03:12:28.943Z,1002.26
2023-10-11T03:13:28.828Z,1002.25
2023-10-11T03:14:28.800Z,1002.21
2023-10-11T03:15:28.801Z,1002.21
2023-10-11T03:16:28.775Z,1002.20
2023-10-11T03:17:28.800Z,1002.20
2023-10-11T03:18:28.849Z,1002.18
2023-10-11T03:19:28.727Z,1002.18
2023-10-11T03:20:28.725Z,1002.18
2023-10-11T03:21:28.722Z,1002.20
2023-10-11T03:22:28.744Z,1002.19
2023-10-11T03:23:28.671Z,1002.12
2023-10-11T03:24:28.678Z,1002.17
2023-10-11T03:25:28.653Z,1002.17
2023-10-11T03:26:28.652Z,1002.21
2023-10-11T03:27:28.656Z,1002.22
2023-10-11T03:28:28.637Z,1002.21
2023-10-11T03:29:28.596Z,1002.23
2023-10-11T03:30:28.590Z,1002.22
2023-10-11T03:31:28.617Z,1002.23
2023-10-11T03:32:28.641Z,1002.20
2023-10-11T03:33:28.685Z,1002.16
2023-10-11T03:34:28.531Z,1002.15
2023-10-11T03:35:28.523Z,1002.12
2023-10-11T03:36:28.520Z,1002.15
2023-10-11T03:37:28.493Z,1002.16
2023-10-11T03:38:28.476Z,1002.14
2023-10-11T03:39:28.451Z,1002.12
2023-10-11T03:40:28.461Z,1002.10
2023-10-11T03:41:28.450Z,1002.11
2023-10-11T03:42:28.421Z,1002.14
2023-10-11T03:43:28.406Z,1002.12
2023-10-11T03:44:28.397Z,1002.12
2023-10-11T03:45:28.401Z,1002.10
2023-10-11T03:46:28.369Z,1002.13
2023-10-11T03:47:28.448Z,1002.13
2023-10-11T03:48:28.421Z,1002.08
2023-10-11T03:49:28.325Z,1002.12
2023-10-11T03:50:28.332Z,1002.11
2023-10-11T03:51:28.301Z,1002.12
2023-10-11T03:52:28.288Z,1002.15
2023-10-11T03:53:28.273Z,1002.13
2023-10-11T03:54:28.291Z,1002.14
2023-10-11T03:55:28.262Z,1002.13
2023-10-11T03:56:28.232Z,1002.09
2023-10-11T03:57:28.223Z,1002.04
2023-10-11T03:58:28.212Z,1002.07
2023-10-11T03:59:28.217Z,1002.13
2023-10-11T04:00:28.235Z,1002.11
2023-10-11T04:01:28.202Z,1002.10
2023-10-11T04:02:28.177Z,1002.11
2023-10-11T04:03:28.250Z,1002.10
2023-10-11T04:04:28.222Z,1002.07
2023-10-11T04:05:28.110Z,1002.03
2023-10-11T04:06:28.103Z,1002.00
2023-10-11T04:07:28.083Z,1002.00
2023-10-11T04:08:28.113Z,1001.97
2023-10-11T04:09:28.100Z,1002.00
2023-10-11T04:10:28.043Z,1002.01
2023-10-11T04:11:28.029Z,1002.06
2023-10-11T04:12:28.050Z,1002.02
2023-10-11T04:13:28.030Z,1002.03
2023-10-11T04:14:27.991Z,1002.04
2023-10-11T04:15:27.971Z,1002.03
2023-10-11T04:16:27.969Z,1002.09
2023-10-11T04:17:28.055Z,1002.06
2023-10-11T04:18:28.102Z,1002.04
2023-10-11T04:19:29.793Z,1002.05
2023-10-11T04:20:27.912Z,1002.05
2023-10-11T04:21:27.894Z,1002.04
2023-10-11T04:22:27.920Z,1002.04
2023-10-11T04:23:27.895Z,1002.07
2023-10-11T04:24:28.014Z,1002.07
2023-10-11T04:25:27.844Z,1002.12
2023-10-11T04:26:27.832Z,1002.09
2023-10-11T04:27:27.845Z,1002.10
2023-10-11T04:28:27.812Z,1002.13
2023-10-11T04:29:27.796Z,1002.07
2023-10-11T04:30:27.858Z,1002.10
2023-10-11T04:31:27.793Z,1002.12
2023-10-11T04:32:27.790Z,1002.09
2023-10-11T04:33:27.831Z,1002.12
2023-10-11T04:34:27.739Z,1002.12
2023-10-11T04:35:27.725Z,1002.15
2023-10-11T04:36:27.720Z,1002.12
2023-10-11T04:37:27.708Z,1002.14
2023-10-11T04:38:27.679Z,1002.15
2023-10-11T04:39:27.697Z,1002.18
2023-10-11T04:40:27.651Z,1002.16
2023-10-11T04:41:27.650Z,1002.17
2023-10-11T04:42:27.632Z,1002.21
2023-10-11T04:43:27.610Z,1002.19
2023-10-11T04:44:27.595Z,1002.25
2023-10-11T04:45:30.570Z,1002.29
2023-10-11T04:46:28.627Z,1002.29
2023-10-11T04:47:27.688Z,1002.25
2023-10-11T04:48:27.607Z,1002.27
2023-10-11T04:49:27.564Z,1002.27
2023-10-11T04:50:27.527Z,1002.29
2023-10-11T04:51:27.574Z,1002.24
2023-10-11T04:52:27.484Z,1002.30
2023-10-11T04:53:27.481Z,1002.27
2023-10-11T04:54:27.484Z,1002.22
2023-10-11T04:55:27.475Z,1002.26
2023-10-11T04:56:27.469Z,1002.27
2023-10-11T04:57:27.455Z,1002.25
2023-10-11T04:58:27.404Z,1002.23
2023-10-11T04:59:27.405Z,1002.28
2023-10-11T05:00:27.539Z,1002.27
2023-10-11T05:01:27.373Z,1002.27
2023-10-11T05:02:27.418Z,1002.28
2023-10-11T05:03:27.434Z,1002.26
2023-10-11T05:04:27.468Z,1002.26
2023-10-11T05:05:27.353Z,1002.25
2023-10-11T05:06:27.333Z,1002.25
2023-10-11T05:07:27.312Z,1002.23
2023-10-11T05:08:27.273Z,1002.27
2023-10-11T05:09:27.380Z,1002.29
2023-10-11T05:10:27.256Z,1002.32
2023-10-11T05:11:27.237Z,1002.34
2023-10-11T05:12:27.267Z,1002.33
2023-10-11T05:13:27.214Z,1002.29
2023-10-11T05:14:27.225Z,1002.29
2023-10-11T05:15:27.212Z,1002.34
2023-10-11T05:16:27.164Z,1002.31
2023-10-11T05:17:27.161Z,1002.36
2023-10-11T05:18:27.171Z,1002.36
2023-10-11T05:19:27.164Z,1002.35
2023-10-11T05:20:27.108Z,1002.41
2023-10-11T05:21:27.191Z,1002.38
2023-10-11T05:22:27.087Z,1002.38
2023-10-11T05:23:27.128Z,1002.44
2023-10-11T05:24:27.108Z,1002.42
2023-10-11T05:25:27.045Z,1002.41
2023-10-11T05:26:27.034Z,1002.37
2023-10-11T05:27:27.033Z,1002.33
2023-10-11T05:28:27.020Z,1002.32
2023-10-11T05:29:26.993Z,1002.32
2023-10-11T05:30:27.025Z,1002.30
2023-10-11T05:31:26.972Z,1002.34
2023-10-11T05:32:26.983Z,1002.34
2023-10-11T05:33:27.031Z,1002.39
2023-10-11T05:34:26.925Z,1002.38
2023-10-11T05:35:28.062Z,1002.41
2023-10-11T05:36:26.929Z,1002.35
2023-10-11T05:37:26.904Z,1002.37
2023-10-11T05:38:26.893Z,1002.35
2023-10-11T05:39:26.882Z,1002.32
2023-10-11T05:40:26.855Z,1002.30
2023-10-11T05:41:26.832Z,1002.31
2023-10-11T05:42:26.880Z,1002.26
2023-10-11T05:43:26.813Z,1002.30
2023-10-11T05:44:26.789Z,1002.30
2023-10-11T05:45:26.874Z,1002.36
2023-10-11T05:46:26.805Z,1002.32
2023-10-11T05:47:26.817Z,1002.31
2023-10-11T05:48:26.953Z,1002.28
2023-10-11T05:49:26.731Z,1002.27
2023-10-11T05:50:26.706Z,1002.28
2023-10-11T05:51:26.774Z,1002.30
2023-10-11T05:52:26.773Z,1002.24
2023-10-11T05:53:26.807Z,1002.29
2023-10-11T05:54:26.789Z,1002.28
2023-10-11T05:55:26.651Z,1002.34
2023-10-11T05:56:26.682Z,1002.31
2023-10-11T05:57:26.626Z,1002.40
2023-10-11T05:58:26.597Z,1002.38
2023-10-11T05:59:26.598Z,1002.37
2023-10-11T06:00:26.628Z,1002.41
2023-10-11T06:01:26.602Z,1002.42
2023-10-11T06:02:26.565Z,1002.36
2023-10-11T06:03:26.672Z,1002.39
2023-10-11T06:04:26.533Z,1002.39
2023-10-11T06:05:26.600Z,1002.41
2023-10-11T06:06:26.596Z,1002.43
2023-10-11T06:07:26.485Z,1002.45
2023-10-11T06:08:26.464Z,1002.50
2023-10-11T06:09:26.496Z,1002.51
2023-10-11T06:10:26.521Z,1002.54
2023-10-11T06:11:26.438Z,1002.56
2023-10-11T06:12:26.464Z,1002.56
2023-10-11T06:13:26.414Z,1002.53
2023-10-11T06:14:26.404Z,1002.56
2023-10-11T06:15:26.433Z,1002.51
2023-10-11T06:16:29.525Z,1002.52
2023-10-11T06:17:26.377Z,1002.52
2023-10-11T06:18:26.426Z,1002.51
2023-10-11T06:19:26.355Z,1002.50
2023-10-11T06:20:26.332Z,1002.52
2023-10-11T06:21:26.340Z,1002.48
2023-10-11T06:22:26.282Z,1002.47
2023-10-11T06:23:26.267Z,1002.47
2023-10-11T06:24:26.325Z,1002.52
2023-10-11T06:25:26.268Z,1002.53
2023-10-11T06:26:26.223Z,1002.55
2023-10-11T06:27:26.315Z,1002.53
2023-10-11T06:28:26.201Z,1002.56
2023-10-11T06:29:26.209Z,1002.49
2023-10-11T06:30:26.288Z,1002.49
2023-10-11T06:31:26.247Z,1002.49
2023-10-11T06:32:26.433Z,1002.46
2023-10-11T06:33:26.235Z,1002.45
2023-10-11T06:34:26.145Z,1002.49
2023-10-11T06:35:26.139Z,1002.46
2023-10-11T06:36:26.119Z,1002.50
2023-10-11T06:37:26.163Z,1002.52
2023-10-11T06:38:26.081Z,1002.53
2023-10-11T06:39:26.090Z,1002.53
2023-10-11T06:40:26.049Z,1002.53
2023-10-11T06:41:26.042Z,1002.49
2023-10-11T06:42:26.182Z,1002.51
2023-10-11T06:43:26.016Z,1002.48
2023-10-11T06:44:26.001Z,1002.50
2023-10-11T06:45:26.066Z,1002.45
2023-10-11T06:46:26.087Z,1002.40
2023-10-11T06:47:25.983Z,1002.46
2023-10-11T06:48:26.023Z,1002.54
2023-10-11T06:49:25.925Z,1002.55
2023-10-11T06:50:26.185Z,1002.58
2023-10-11T06:51:25.948Z,1002.61
2023-10-11T06:52:25.894Z,1002.64
2023-10-11T06:53:25.863Z,1002.68
2023-10-11T06:54:25.871Z,1002.73
2023-10-11T06:55:25.841Z,1002.77
2023-10-11T06:56:25.830Z,1002.74
2023-10-11T06:57:25.881Z,1002.73
2023-10-11T06:58:25.791Z,1002.71
2023-10-11T06:59:25.800Z,1002.67
2023-10-11T07:00:26.156Z,1002.67
2023-10-11T07:01:25.777Z,1002.67
2023-10-11T07:02:25.769Z,1002.64
2023-10-11T07:03:25.834Z,1002.62
2023-10-11T07:04:25.811Z,1002.60
2023-10-11T07:05:25.706Z,1002.56
2023-10-11T07:06:25.721Z,1002.63
2023-10-11T07:07:25.672Z,1002.59
2023-10-11T07:08:25.673Z,1002.55
2023-10-11T07:09:25.686Z,1002.49
2023-10-11T07:10:25.714Z,1002.46
2023-10-11T07:11:25.656Z,1002.42
2023-10-11T07:12:25.681Z,1002.32
2023-10-11T07:13:25.602Z,1002.34
2023-10-11T07:14:25.605Z,1002.38
2023-10-11T07:15:25.708Z,1002.45
2023-10-11T07:16:25.617Z,1002.55
2023-10-11T07:17:25.593Z,1002.55
2023-10-11T07:18:25.665Z,1002.56
2023-10-11T07:19:25.534Z,1002.53
2023-10-11T07:20:25.521Z,1002.50
2023-10-11T07:21:25.575Z,1002.47
2023-10-11T07:22:25.479Z,1002.46
2023-10-11T07:23:25.516Z,1002.47
2023-10-11T07:24:25.534Z,1002.44
2023-10-11T07:25:25.461Z,1002.51
2023-10-11T07:26:25.428Z,1002.50
2023-10-11T07:27:25.447Z,1002.51
2023-10-11T07:28:25.401Z,1002.50
2023-10-11T07:29:25.426Z,1002.51
2023-10-11T07:30:25.480Z,1002.48
2023-10-11T07:31:25.395Z,1002.54
2023-10-11T07:32:25.463Z,1002.55
2023-10-11T07:33:25.505Z,1002.57
2023-10-11T07:34:25.422Z,1002.64
2023-10-11T07:35:25.308Z,1002.66
2023-10-11T07:36:27.967Z,1002.67
2023-10-11T07:37:25.279Z,1002.65
2023-10-11T07:38:25.270Z,1002.71
2023-10-11T07:39:25.336Z,1002.69
2023-10-11T07:40:25.258Z,1002.74
2023-10-11T07:41:25.510Z,1002.74
2023-10-11T07:42:25.251Z,1002.74
2023-10-11T07:43:25.256Z,1002.74
2023-10-11T07:44:25.208Z,1002.68
2023-10-11T07:45:25.238Z,1002.61
2023-10-11T07:46:25.230Z,1002.59
2023-10-11T07:47:25.320Z,1002.61
2023-10-11T07:48:25.273Z,1002.55
2023-10-11T07:49:25.942Z,1002.57
2023-10-11T07:50:25.104Z,1002.57
2023-10-11T07:51:25.149Z,1002.62
2023-10-11T07:52:25.090Z,1002.61
2023-10-11T07:53:25.086Z,1002.64
2023-10-11T07:54:25.082Z,1002.64
2023-10-11T07:55:25.037Z,1002.55
2023-10-11T07:56:25.039Z,1002.58
2023-10-11T07:57:25.072Z,1002.52
2023-10-11T07:58:25.019Z,1002.53
2023-10-11T07:59:25.522Z,1002.48
2023-10-11T08:00:25.010Z,1002.44
2023-10-11T08:01:24.989Z,1002.42
2023-10-11T08:02:24.995Z,1002.44
2023-10-11T08:03:25.081Z,1002.39
2023-10-11T08:04:24.932Z,1002.43
2023-10-11T08:05:24.918Z,1002.43
2023-10-11T08:06:24.916Z,1002.39
2023-10-11T08:07:24.914Z,1002.45
2023-10-11T08:08:24.858Z,1002.51
2023-10-11T08:09:24.925Z,1002.48
2023-10-11T08:10:24.862Z,1002.48
2023-10-11T08:11:24.838Z,1002.45
2023-10-11T08:12:25.070Z,1002.45
2023-10-11T08:13:24.797Z,1002.43
2023-10-11T08:14:24.790Z,1002.45
2023-10-11T08:15:24.881Z,1002.42
2023-10-11T08:16:24.855Z,1002.42
2023-10-11T08:17:24.738Z,1002.37
2023-10-11T08:18:24.816Z,1002.42
2023-10-11T08:19:24.725Z,1002.41
2023-10-11T08:20:24.725Z,1002.40
2023-10-11T08:21:24.751Z,1002.41
2023-10-11T08:22:24.687Z,1002.38
2023-10-11T08:23:24.662Z,1002.39
2023-10-11T08:24:24.680Z,1002.38
2023-10-11T08:25:24.685Z,1002.40
2023-10-11T08:26:28.591Z,1002.40
2023-10-11T08:27:24.676Z,1002.43
2023-10-11T08:28:24.599Z,1002.41
2023-10-11T08:29:24.580Z,1002.44
2023-10-11T08:30:24.697Z,1002.44
2023-10-11T08:31:24.603Z,1002.42
2023-10-11T08:32:24.550Z,1002.44
2023-10-11T08:33:24.611Z,1002.43
2023-10-11T08:34:24.509Z,1002.40
2023-10-11T08:35:24.618Z,1002.39
2023-10-11T08:36:24.491Z,1002.37
2023-10-11T08:37:24.475Z,1002.34
2023-10-11T08:38:24.462Z,1002.32
2023-10-11T08:39:24.452Z,1002.31
2023-10-11T08:40:24.571Z,1002.29
2023-10-11T08:41:24.429Z,1002.21
2023-10-11T08:42:24.426Z,1002.17
2023-10-11T08:43:24.399Z,1002.15
2023-10-11T08:44:24.382Z,1002.15
2023-10-11T08:45:24.454Z,1002.19
2023-10-11T08:46:24.364Z,1002.13
2023-10-11T08:47:24.375Z,1002.16
2023-10-11T08:48:24.378Z,1002.16
2023-10-11T08:49:24.353Z,1002.20
2023-10-11T08:50:24.286Z,1002.23
2023-10-11T08:51:24.378Z,1002.24
2023-10-11T08:52:24.256Z,1002.24
2023-10-11T08:53:24.260Z,1002.28
2023-10-11T08:54:24.263Z,1002.28
2023-10-11T08:55:24.230Z,1002.23
2023-10-11T08:56:24.222Z,1002.17
2023-10-11T08:57:24.233Z,1002.15
2023-10-11T08:58:24.176Z,1002.14
2023-10-11T08:59:24.190Z,1002.13
2023-10-11T09:00:24.232Z,1002.10
2023-10-11T09:01:24.214Z,1002.06
2023-10-11T09:02:24.135Z,1002.05
2023-10-11T09:03:24.319Z,1002.06
2023-10-11T09:04:24.177Z,1002.05
2023-10-11T09:05:24.747Z,1002.09
2023-10-11T09:06:24.220Z,1002.03
2023-10-11T09:07:24.069Z,1002.07
2023-10-11T09:08:24.069Z,1002.05
2023-10-11T09:09:24.140Z,1002.02
2023-10-11T09:10:24.109Z,1002.04
2023-10-11T09:11:24.007Z,1002.01
2023-10-11T09:12:24.067Z,1001.98
2023-10-11T09:13:23.997Z,1002.02
2023-10-11T09:14:24.285Z,1001.95
2023-10-11T09:15:24.062Z,1001.98
2023-10-11T09:16:23.983Z,1001.98
2023-10-11T09:17:23.930Z,1001.97
2023-10-11T09:18:24.497Z,1001.98
2023-10-11T09:19:23.902Z,1001.97
2023-10-11T09:20:23.901Z,1001.97
2023-10-11T09:21:23.889Z,1001.99
2023-10-11T09:22:23.880Z,1001.99
2023-10-11T09:23:23.864Z,1001.98
2023-10-11T09:24:23.876Z,1001.99
2023-10-11T09:25:23.839Z,1002.01
2023-10-11T09:26:28.662Z,1001.98
2023-10-11T09:27:24.825Z,1001.98
2023-10-11T09:28:24.070Z,1001.99
2023-10-11T09:29:23.765Z,1001.98
2023-10-11T09:30:25.485Z,1001.95
2023-10-11T09:31:23.746Z,1001.89
2023-10-11T09:32:23.786Z,1001.88
2023-10-11T09:33:23.863Z,1001.89
2023-10-11T09:34:23.701Z,1001.86
2023-10-11T09:35:23.681Z,1001.89
2023-10-11T09:36:23.694Z,1001.86
2023-10-11T09:37:24.313Z,1001.83
2023-10-11T09:38:23.651Z,1001.82
2023-10-11T09:39:23.702Z,1001.83
2023-10-11T09:40:23.642Z,1001.84
2023-10-11T09:41:23.623Z,1001.84
2023-10-11T09:42:23.948Z,1001.82
2023-10-11T09:43:23.570Z,1001.84
2023-10-11T09:44:23.565Z,1001.87
2023-10-11T09:45:23.677Z,1001.89
2023-10-11T09:46:23.580Z,1001.87
2023-10-11T09:47:23.518Z,1001.87
2023-10-11T09:48:23.645Z,1001.86
2023-10-11T09:49:23.492Z,1001.88
2023-10-11T09:50:23.498Z,1001.87
2023-10-11T09:51:23.525Z,1001.84
2023-10-11T09:52:23.461Z,1001.85
2023-10-11T09:53:23.441Z,1001.79
2023-10-11T09:54:23.468Z,1001.78
2023-10-11T09:55:23.426Z,1001.81
2023-10-11T09:56:26.045Z,1001.76
2023-10-11T09:57:23.426Z,1001.78
2023-10-11T09:58:23.379Z,1001.74
2023-10-11T09:59:23.387Z,1001.77
2023-10-11T10:00:23.429Z,1001.74
2023-10-11T10:01:23.386Z,1001.75
2023-10-11T10:02:23.340Z,1001.77
2023-10-11T10:03:23.399Z,1001.80
2023-10-11T10:04:23.513Z,1001.83
2023-10-11T10:05:23.294Z,1001.84
2023-10-11T10:06:23.455Z,1001.84
2023-10-11T10:07:23.253Z,1001.85
2023-10-11T10:08:23.244Z,1001.85
2023-10-11T10:09:23.440Z,1001.87
2023-10-11T10:10:23.231Z,1001.84
2023-10-11T10:11:23.209Z,1001.85
2023-10-11T10:12:23.241Z,1001.81
2023-10-11T10:13:23.174Z,1001.77
2023-10-11T10:14:23.192Z,1001.76
2023-10-11T10:15:23.274Z,1001.76
2023-10-11T10:16:23.169Z,1001.76
2023-10-11T10:17:23.123Z,1001.76
2023-10-11T10:18:23.187Z,1001.75
2023-10-11T10:19:23.203Z,1001.74
2023-10-11T10:20:23.979Z,1001.70
2023-10-11T10:21:23.102Z,1001.70
2023-10-11T10:22:23.056Z,1001.74
2023-10-11T10:23:23.067Z,1001.71
2023-10-11T10:24:23.107Z,1001.67
2023-10-11T10:25:23.138Z,1001.68
2023-10-11T10:26:23.005Z,1001.70
2023-10-11T10:27:23.076Z,1001.67
2023-10-11T10:28:22.997Z,1001.63
2023-10-11T10:29:22.957Z,1001.63
2023-10-11T10:30:23.294Z,1001.59
2023-10-11T10:31:23.287Z,1001.53
2023-10-11T10:32:22.927Z,1001.55
2023-10-11T10:33:23.029Z,1001.55
2023-10-11T10:34:22.896Z,1001.56
2023-10-11T10:35:22.894Z,1001.55
2023-10-11T10:36:23.340Z,1001.55
2023-10-11T10:37:22.847Z,1001.54
2023-10-11T10:38:22.906Z,1001.56
2023-10-11T10:39:23.097Z,1001.55
2023-10-11T10:40:22.810Z,1001.51
2023-10-11T10:41:22.787Z,1001.54
2023-10-11T10:42:22.886Z,1001.57
2023-10-11T10:43:22.977Z,1001.49
2023-10-11T10:44:22.766Z,1001.49
2023-10-11T10:45:22.830Z,1001.51
2023-10-11T10:46:22.760Z,1001.49
2023-10-11T10:47:22.747Z,1001.48
2023-10-11T10:48:22.761Z,1001.50
2023-10-11T10:49:22.699Z,1001.49
2023-10-11T10:50:22.810Z,1001.50
2023-10-11T10:51:22.687Z,1001.46
2023-10-11T10:52:22.665Z,1001.41
2023-10-11T10:53:22.702Z,1001.48
2023-10-11T10:54:22.679Z,1001.47
2023-10-11T10:55:22.607Z,1001.44
2023-10-11T10:56:22.608Z,1001.47
2023-10-11T10:57:22.639Z,1001.41
2023-10-11T10:58:22.797Z,1001.38
2023-10-11T10:59:22.548Z,1001.42
2023-10-11T11:00:22.850Z,1001.41
2023-10-11T11:01:22.622Z,1001.38
2023-10-11T11:02:22.513Z,1001.39
2023-10-11T11:03:22.797Z,1001.37
2023-10-11T11:04:22.935Z,1001.33
2023-10-11T11:05:22.476Z,1001.29
2023-10-11T11:06:22.506Z,1001.27
2023-10-11T11:07:22.439Z,1001.28
2023-10-11T11:08:26.340Z,1001.27
2023-10-11T11:09:22.425Z,1001.27
2023-10-11T11:10:22.411Z,1001.24
2023-10-11T11:11:22.408Z,1001.25
2023-10-11T11:12:22.406Z,1001.24
2023-10-11T11:13:22.365Z,1001.19
2023-10-11T11:14:22.344Z,1001.22
2023-10-11T11:15:22.542Z,1001.22
2023-10-11T11:16:22.342Z,1001.18
2023-10-11T11:17:22.304Z,1001.20
2023-10-11T11:18:22.394Z,1001.25
2023-10-11T11:19:22.307Z,1001.22
2023-10-11T11:20:22.289Z,1001.24
2023-10-11T11:21:22.277Z,1001.18
2023-10-11T11:22:22.243Z,1001.19
2023-10-11T11:23:22.224Z,1001.18
2023-10-11T11:24:22.483Z,1001.18
2023-10-11T11:25:22.215Z,1001.19
2023-10-11T11:26:32.376Z,1001.22
2023-10-11T11:27:23.206Z,1001.21
2023-10-11T11:28:22.200Z,1001.20
2023-10-11T11:29:22.165Z,1001.19
2023-10-11T11:30:22.393Z,1001.18
2023-10-11T11:31:22.173Z,1001.15
2023-10-11T11:32:22.109Z,1001.18
2023-10-11T11:33:22.181Z,1001.15
2023-10-11T11:34:22.107Z,1001.15
2023-10-11T11:35:22.064Z,1001.12
2023-10-11T11:36:22.368Z,1001.11
2023-10-11T11:37:22.056Z,1001.12
2023-10-11T11:38:22.067Z,1001.06
2023-10-11T11:39:22.083Z,1001.05
2023-10-11T11:40:22.001Z,1001.07
2023-10-11T11:41:28.558Z,1001.03
2023-10-11T11:42:23.041Z,1001.07
2023-10-11T11:43:22.238Z,1001.05
2023-10-11T11:44:21.964Z,1001.01
2023-10-11T11:45:21.951Z,1000.96
2023-10-11T11:46:21.956Z,1000.95
2023-10-11T11:47:21.904Z,1000.96
2023-10-11T11:48:22.000Z,1000.94
2023-10-11T11:49:22.048Z,1000.91
2023-10-11T11:50:22.822Z,1000.92
2023-10-11T11:51:21.925Z,1000.98
2023-10-11T11:52:21.906Z,1000.92
2023-10-11T11:53:22.057Z,1000.94
2023-10-11T11:54:21.951Z,1000.88
2023-10-11T11:55:21.816Z,1000.93
2023-10-11T11:56:21.790Z,1000.95
2023-10-11T11:57:22.030Z,1000.88
2023-10-11T11:58:21.772Z,1000.85
2023-10-11T11:59:21.743Z,1000.87
2023-10-11T12:00:22.556Z,1000.87
2023-10-11T12:01:21.716Z,1000.84
2023-10-11T12:02:21.730Z,1000.84
2023-10-11T12:03:21.813Z,1000.91
2023-10-11T12:04:22.249Z,1000.79
2023-10-11T12:05:21.660Z,1000.79